Time Latitude Longitude Accuracy (66% radius in meters) Altitude (meters) Speed (km/hour) Bearing (degrees) Battery (%) GPS flag
05:14:52 57.150561 39.348372 6.5 112 0 0 33 1 delete
05:14:31 57.150521 39.348362 10.5 98.599998474121 0.68000000715256 191.689453125 33 1 delete
05:04:16 57.150576 39.348402 6.5 102.59999847412 0 0 33 1 delete
05:04:06 57.150654 39.348449 10 100.90000152588 0 0 33 1 delete
05:03:55 57.150760 39.348603 15.5 103.30000305176 0.28999999165535 75.267333984375 33 1 delete
04:53:46 57.150509 39.348420 7.5 116.09999847412 0 0 35 1 delete
04:53:31 57.150494 39.348422 8.5 119.40000152588 0 0 35 1 delete
04:43:13 57.150456 39.348195 6 92.599998474121 0.14000000059605 169.14001464844 35 1 delete
04:42:43 57.150580 39.348235 6.5 95.699996948242 0 0 35 1 delete
04:42:13 57.150636 39.348307 4 95.300003051758 0 0 35 1 delete
04:41:43 57.150638 39.348305 3.5 95.400001525879 0 0 35 1 delete
04:41:13 57.150638 39.348305 3 95.400001525879 0 0 35 1 delete
04:40:43 57.150638 39.348305 4.5 95.400001525879 0 0 35 1 delete
04:40:08 57.150582 39.348188 8 83.5 0 0 35 1 delete
04:39:28 57.150596 39.348185 6.5 84.699996948242 0 0 35 1 delete
04:28:53 57.150547 39.348276 12 117.69999694824 0.28000000119209 330.83129882812 36 1 delete
04:28:37 57.150585 39.348289 16.5 85 0.15999999642372 81.815185546875 36 1 delete
04:18:22 57.150497 39.348127 8 102.80000305176 0 0 36 1 delete
04:18:07 57.150546 39.348121 12.5 111.30000305176 0 0 36 1 delete
04:18:01 57.150461 39.348008 17 107.90000152588 0.55000001192093 38.73779296875 36 1 delete
04:07:47 57.150618 39.348251 4.5 112.90000152588 0 0 39 1 delete
04:07:22 57.150610 39.348248 5 112.5 0.38999998569489 25.691528320312 39 1 delete
04:07:17 57.150588 39.348202 5 108.90000152588 0 0 39 1 delete
04:06:47 57.150588 39.348202 4 108.90000152588 0 0 39 1 delete
04:06:17 57.150588 39.348202 3 108.90000152588 0 0 39 1 delete
04:05:47 57.150588 39.348202 3.5 108.90000152588 0 0 39 1 delete
04:05:17 57.150588 39.348202 3.5 108.90000152588 0 0 39 1 delete
04:04:47 57.150588 39.348202 3 108.90000152588 0 0 39 1 delete
04:04:17 57.150588 39.348202 3 108.90000152588 0 0 39 1 delete
04:03:47 57.150588 39.348202 3.5 108.90000152588 0 0 39 1 delete
04:03:17 57.150588 39.348202 3 108.90000152588 0 0 39 1 delete
04:02:42 57.150595 39.348185 3 108.59999847412 0 0 39 1 delete
04:02:12 57.150595 39.348185 3.5 108.59999847412 0 0 39 1 delete
04:01:42 57.150595 39.348185 4 108.59999847412 0 0 39 1 delete
04:01:12 57.150595 39.348185 4 108.59999847412 0 0 39 1 delete
04:00:42 57.150595 39.348185 4 108.59999847412 0 0 39 1 delete
04:00:12 57.150595 39.348185 3.5 108.59999847412 0 0 39 1 delete
03:59:42 57.150595 39.348185 3.5 108.59999847412 0 0 39 1 delete
03:59:12 57.150596 39.348185 3 108.59999847412 0.070000000298023 249.521484375 39 1 delete
03:58:42 57.150586 39.348185 3 108.30000305176 0 0 39 1 delete
03:58:12 57.150568 39.348181 2.5 108.59999847412 0 0 39 1 delete
03:57:37 57.150568 39.348181 2.5 108.59999847412 0 0 39 1 delete
03:57:07 57.150568 39.348181 2.5 108.59999847412 0 81.315307617188 39 1 delete
03:56:37 57.150568 39.348188 2.5 108.40000152588 0 0 39 1 delete
03:56:07 57.150555 39.348188 2.5 109.80000305176 0 0 39 1 delete
03:55:37 57.150542 39.348213 2.5 110.09999847412 0 0 39 1 delete
03:55:07 57.150548 39.348223 2.5 107.90000152588 0 0 42 1 delete
03:54:37 57.150550 39.348219 3.5 106.09999847412 0 0 42 1 delete
03:54:07 57.150550 39.348219 3 106.09999847412 0 0 42 1 delete
03:53:37 57.150550 39.348219 3 106.09999847412 0 0 42 1 delete